createdAt,value
2022-11-07T00:01:22.855Z,8.40
2022-11-07T00:03:52.176Z,8.40
2022-11-07T00:06:20.261Z,8.30
2022-11-07T00:08:54.090Z,8.30
2022-11-07T00:11:22.241Z,8.40
2022-11-07T00:13:50.304Z,8.50
2022-11-07T00:16:18.439Z,8.40
2022-11-07T00:18:48.119Z,8.40
2022-11-07T00:21:16.595Z,8.30
2022-11-07T00:23:44.653Z,8.30
2022-11-07T00:26:13.741Z,8.30
2022-11-07T00:28:43.069Z,8.20
2022-11-07T00:31:12.631Z,8.20
2022-11-07T00:33:41.470Z,8.10
2022-11-07T00:36:12.003Z,8.00
2022-11-07T00:38:40.137Z,8.00
2022-11-07T00:41:08.512Z,8.00
2022-11-07T00:43:37.994Z,8.00
2022-11-07T00:46:07.230Z,8.00
2022-11-07T00:48:36.849Z,8.10
2022-11-07T00:51:08.321Z,8.00
2022-11-07T00:53:38.092Z,8.00
2022-11-07T00:56:07.085Z,8.00
2022-11-07T00:58:35.517Z,7.90
2022-11-07T01:01:08.411Z,8.00
2022-11-07T01:03:54.590Z,8.00
2022-11-07T01:06:22.663Z,7.90
2022-11-07T01:08:54.357Z,8.00
2022-11-07T01:11:22.637Z,8.00
2022-11-07T01:13:50.818Z,8.10
2022-11-07T01:16:18.923Z,8.10
2022-11-07T01:18:47.045Z,8.10
2022-11-07T01:21:16.641Z,8.00
2022-11-07T01:23:45.016Z,8.10
2022-11-07T01:26:14.832Z,8.10
2022-11-07T01:28:43.168Z,8.20
2022-11-07T01:31:12.617Z,8.20
2022-11-07T01:33:41.035Z,8.20
2022-11-07T01:36:10.512Z,8.20
2022-11-07T01:38:41.948Z,8.30
2022-11-07T01:41:22.507Z,8.20
2022-11-07T01:43:53.595Z,8.30
2022-11-07T01:46:22.879Z,8.30
2022-11-07T01:48:53.344Z,8.30
2022-11-07T01:51:23.000Z,8.30
2022-11-07T01:53:51.625Z,8.30
2022-11-07T01:56:20.375Z,8.40
2022-11-07T01:58:48.924Z,8.40
2022-11-07T02:01:18.838Z,8.30
2022-11-07T02:03:47.462Z,8.40
2022-11-07T02:06:22.171Z,8.40
2022-11-07T02:08:50.884Z,8.40
2022-11-07T02:11:19.449Z,8.40
2022-11-07T02:13:47.591Z,8.40
2022-11-07T02:16:15.814Z,8.40
2022-11-07T02:18:46.064Z,8.30
2022-11-07T02:21:19.372Z,8.30
2022-11-07T02:23:51.239Z,8.20
2022-11-07T02:26:21.040Z,8.20
2022-11-07T02:28:49.761Z,8.20
2022-11-07T02:31:17.825Z,8.20
2022-11-07T02:33:45.941Z,8.10
2022-11-07T02:36:16.795Z,8.10
2022-11-07T02:38:45.577Z,8.20
2022-11-07T02:41:15.734Z,8.10
2022-11-07T02:43:47.126Z,8.10
2022-11-07T02:46:17.250Z,8.10
2022-11-07T02:48:46.545Z,8.10
2022-11-07T02:51:14.875Z,8.10
2022-11-07T02:53:43.036Z,8.10
2022-11-07T02:56:11.329Z,8.10
2022-11-07T02:58:39.419Z,8.20
2022-11-07T03:01:09.244Z,8.20
2022-11-07T03:03:39.080Z,8.20
2022-11-07T03:06:07.616Z,8.30
2022-11-07T03:08:36.081Z,8.30
2022-11-07T03:11:06.473Z,8.20
2022-11-07T03:13:34.796Z,8.30
2022-11-07T03:16:05.376Z,8.30
2022-11-07T03:18:35.306Z,8.30
2022-11-07T03:21:03.760Z,8.30
2022-11-07T03:23:32.007Z,8.40
2022-11-07T03:26:00.087Z,8.40
2022-11-07T03:28:28.169Z,8.40
2022-11-07T03:30:56.402Z,8.40
2022-11-07T03:33:24.493Z,8.40
2022-11-07T03:35:59.200Z,8.40
2022-11-07T03:38:27.339Z,8.40
2022-11-07T03:40:55.505Z,8.30
2022-11-07T03:43:23.554Z,8.40
2022-11-07T03:45:53.445Z,8.30
2022-11-07T03:48:21.568Z,8.20
2022-11-07T03:50:49.624Z,8.20
2022-11-07T03:53:24.081Z,8.20
2022-11-07T03:55:55.223Z,8.20
2022-11-07T03:58:23.809Z,8.20
2022-11-07T04:00:52.247Z,8.20
2022-11-07T04:03:20.301Z,8.20
2022-11-07T04:05:48.399Z,8.20
2022-11-07T04:08:16.505Z,8.20
2022-11-07T04:10:45.936Z,8.20
2022-11-07T04:13:31.353Z,8.30
2022-11-07T04:16:25.142Z,8.30
2022-11-07T04:18:53.205Z,8.30
2022-11-07T04:21:21.427Z,8.30
2022-11-07T04:23:49.587Z,8.20
2022-11-07T04:26:36.354Z,8.20
2022-11-07T04:29:04.687Z,8.20
2022-11-07T04:31:33.016Z,8.10
2022-11-07T04:34:01.061Z,8.10
2022-11-07T04:36:29.284Z,8.10
2022-11-07T04:38:57.360Z,8.10
2022-11-07T04:41:26.897Z,8.10
2022-11-07T04:43:55.166Z,8.10
2022-11-07T04:46:24.278Z,8.10
2022-11-07T04:48:52.327Z,8.10
2022-11-07T04:51:22.362Z,8.00
2022-11-07T04:53:50.499Z,8.00
2022-11-07T04:56:18.625Z,8.00
2022-11-07T04:58:48.088Z,8.00
2022-11-07T05:01:16.421Z,7.90
2022-11-07T05:03:44.568Z,7.90
2022-11-07T05:06:15.432Z,8.00
2022-11-07T05:08:45.376Z,7.90
2022-11-07T05:11:13.616Z,8.00
2022-11-07T05:13:41.863Z,8.00
2022-11-07T05:16:13.274Z,8.00
2022-11-07T05:18:41.588Z,8.00
2022-11-07T05:21:09.817Z,8.00
2022-11-07T05:23:37.992Z,7.90
2022-11-07T05:26:08.677Z,7.90
2022-11-07T05:28:39.593Z,7.90
2022-11-07T05:31:08.744Z,7.90
2022-11-07T05:33:38.175Z,7.90
2022-11-07T05:36:10.248Z,7.90
2022-11-07T05:38:38.334Z,7.90
2022-11-07T05:41:06.759Z,7.90
2022-11-07T05:43:34.836Z,7.90
2022-11-07T05:46:03.117Z,7.90
2022-11-07T05:48:31.721Z,7.90
2022-11-07T05:51:01.497Z,7.90
2022-11-07T05:53:29.833Z,7.90
2022-11-07T05:55:58.260Z,7.90
2022-11-07T05:58:26.556Z,7.90
2022-11-07T06:00:54.760Z,7.90
2022-11-07T06:03:25.352Z,7.90
2022-11-07T06:05:53.717Z,7.90
2022-11-07T06:08:23.159Z,7.90
2022-11-07T06:10:51.301Z,7.90
2022-11-07T06:13:19.562Z,7.90
2022-11-07T06:15:47.894Z,7.90
2022-11-07T06:18:16.945Z,7.90
2022-11-07T06:20:45.330Z,7.90
2022-11-07T06:23:14.032Z,7.90
2022-11-07T06:25:43.768Z,7.90
2022-11-07T06:28:13.294Z,7.90
2022-11-07T06:30:41.428Z,7.90
2022-11-07T06:33:11.374Z,7.90
2022-11-07T06:35:39.708Z,7.90
2022-11-07T06:38:08.989Z,7.90
2022-11-07T06:40:37.386Z,7.90
2022-11-07T06:46:39.932Z,7.90
2022-11-07T06:49:09.207Z,7.90
2022-11-07T06:51:37.445Z,8.00
2022-11-07T06:54:05.636Z,8.00
2022-11-07T06:56:33.816Z,8.00
2022-11-07T06:59:01.929Z,8.00
2022-11-07T07:01:30.191Z,8.00
2022-11-07T07:04:00.348Z,8.00
2022-11-07T07:06:28.681Z,8.00
2022-11-07T07:08:56.760Z,8.10
2022-11-07T07:11:25.031Z,8.10
2022-11-07T07:13:55.089Z,8.10
2022-11-07T07:16:25.230Z,8.20
2022-11-07T07:18:53.268Z,8.20
2022-11-07T07:21:22.848Z,8.20
2022-11-07T07:23:50.917Z,8.20
2022-11-07T07:26:19.971Z,8.30
2022-11-07T07:28:49.176Z,8.30
2022-11-07T07:31:21.708Z,8.30
2022-11-07T07:33:49.801Z,8.30
2022-11-07T07:36:20.976Z,8.30
2022-11-07T07:38:50.965Z,8.30
2022-11-07T07:41:19.147Z,8.40
2022-11-07T07:43:47.226Z,8.30
2022-11-07T07:46:16.316Z,8.30
2022-11-07T07:48:44.427Z,8.30
2022-11-07T07:51:12.791Z,8.40
2022-11-07T07:53:41.013Z,8.40
2022-11-07T07:56:10.712Z,8.40
2022-11-07T07:58:39.044Z,8.40
2022-11-07T08:01:10.631Z,8.40
2022-11-07T08:04:00.120Z,8.50
2022-11-07T08:06:27.603Z,8.40
2022-11-07T08:08:55.703Z,8.50
2022-11-07T08:11:25.348Z,8.50
2022-11-07T08:13:56.098Z,8.50
2022-11-07T08:16:28.084Z,8.60
2022-11-07T08:18:56.161Z,8.50
2022-11-07T08:21:25.408Z,8.60
2022-11-07T08:23:55.055Z,8.60
2022-11-07T08:26:23.319Z,8.60
2022-11-07T08:28:54.901Z,8.60
2022-11-07T08:31:23.346Z,8.70
2022-11-07T08:33:51.439Z,8.70
2022-11-07T08:36:19.742Z,8.70
2022-11-07T08:38:47.796Z,8.70
2022-11-07T08:41:21.948Z,8.70
2022-11-07T08:43:50.772Z,8.70
2022-11-07T08:46:20.242Z,8.70
2022-11-07T08:48:48.428Z,8.70
2022-11-07T08:51:16.505Z,8.80
2022-11-07T08:53:44.577Z,8.70
2022-11-07T08:56:12.759Z,8.80
2022-11-07T08:58:40.829Z,8.70
2022-11-07T09:01:09.917Z,8.70
2022-11-07T09:03:58.253Z,8.80
2022-11-07T09:06:26.664Z,8.80
2022-11-07T09:08:54.910Z,8.80
2022-11-07T09:11:23.489Z,8.80
2022-11-07T09:13:51.803Z,8.80
2022-11-07T09:16:20.280Z,8.90
2022-11-07T09:18:50.421Z,8.90
2022-11-07T09:21:22.381Z,8.90
2022-11-07T09:23:51.037Z,8.90
2022-11-07T09:26:19.191Z,9.00
2022-11-07T09:28:51.653Z,9.00
2022-11-07T09:31:22.380Z,9.00
2022-11-07T09:33:54.954Z,8.90
2022-11-07T09:36:24.321Z,8.90
2022-11-07T09:38:53.706Z,9.00
2022-11-07T09:41:26.269Z,8.90
2022-11-07T09:44:04.878Z,8.90
2022-11-07T09:46:38.347Z,9.00
2022-11-07T09:49:12.500Z,9.00
2022-11-07T09:51:42.103Z,9.00
2022-11-07T09:54:12.591Z,9.10
2022-11-07T09:56:42.419Z,9.10
2022-11-07T09:59:20.929Z,9.10
2022-11-07T10:01:49.163Z,9.10
2022-11-07T10:04:26.213Z,9.10
2022-11-07T10:06:57.346Z,9.20
2022-11-07T10:09:28.545Z,9.20
2022-11-07T10:12:01.108Z,9.20
2022-11-07T10:14:36.024Z,9.20
2022-11-07T10:17:10.402Z,9.20
2022-11-07T10:19:46.636Z,9.20
2022-11-07T10:22:20.454Z,9.30
2022-11-07T10:24:54.044Z,9.30
2022-11-07T10:27:22.753Z,9.30
2022-11-07T10:29:53.747Z,9.40
2022-11-07T10:32:23.826Z,9.40
2022-11-07T10:34:56.329Z,9.40
2022-11-07T10:37:24.579Z,9.40
2022-11-07T10:39:52.624Z,9.40
2022-11-07T10:42:21.962Z,9.40
2022-11-07T10:44:50.478Z,9.40
2022-11-07T10:47:19.128Z,9.30
2022-11-07T10:49:59.300Z,9.40
2022-11-07T10:52:28.166Z,9.30
2022-11-07T10:55:06.669Z,9.40
2022-11-07T10:57:37.328Z,9.40
2022-11-07T11:00:08.299Z,9.40
2022-11-07T11:02:44.912Z,9.40
2022-11-07T11:05:22.297Z,9.40
2022-11-07T11:07:50.882Z,9.40
2022-11-07T11:10:20.238Z,9.30
2022-11-07T11:12:48.927Z,9.30
2022-11-07T11:15:17.939Z,9.30
2022-11-07T11:17:46.640Z,9.40
2022-11-07T11:20:29.934Z,9.40
2022-11-07T11:22:58.069Z,9.40
2022-11-07T11:25:26.298Z,9.40
2022-11-07T11:27:56.239Z,9.50
2022-11-07T11:30:24.778Z,9.40
2022-11-07T11:32:57.320Z,9.50
2022-11-07T11:35:38.862Z,9.50
2022-11-07T11:38:12.747Z,9.50
2022-11-07T11:40:42.968Z,9.50
2022-11-07T11:43:18.816Z,9.60
2022-11-07T11:45:52.544Z,9.60
2022-11-07T11:48:23.884Z,9.60
2022-11-07T11:50:56.007Z,9.60
2022-11-07T11:53:24.242Z,9.60
2022-11-07T11:55:56.853Z,9.60
2022-11-07T11:58:34.802Z,9.70
2022-11-07T12:01:05.117Z,9.70
2022-11-07T12:03:39.830Z,9.70
2022-11-07T12:06:14.765Z,9.70
2022-11-07T12:08:54.270Z,9.70
2022-11-07T12:11:25.234Z,9.80
2022-11-07T12:13:56.401Z,9.80
2022-11-07T12:16:28.568Z,9.70
2022-11-07T12:19:01.260Z,9.70
2022-11-07T12:21:33.840Z,9.60
2022-11-07T12:24:08.727Z,9.60
2022-11-07T12:26:39.095Z,9.60
2022-11-07T12:29:12.936Z,9.60
2022-11-07T12:31:48.101Z,9.60
2022-11-07T12:34:21.971Z,9.60
2022-11-07T12:36:57.882Z,9.60
2022-11-07T12:39:42.241Z,9.60
2022-11-07T12:42:20.004Z,9.60
2022-11-07T12:44:57.053Z,9.60
2022-11-07T12:47:33.104Z,9.60
2022-11-07T12:50:08.303Z,9.60
2022-11-07T12:52:53.525Z,9.60
2022-11-07T12:55:24.003Z,9.60
2022-11-07T12:57:53.896Z,9.60
2022-11-07T13:00:27.886Z,9.60
2022-11-07T13:03:05.865Z,9.50
2022-11-07T13:05:39.418Z,9.50
2022-11-07T13:08:12.996Z,9.50
2022-11-07T13:10:44.612Z,9.50
2022-11-07T13:13:17.010Z,9.50
2022-11-07T13:16:13.518Z,9.50
2022-11-07T13:18:33.523Z,9.50
2022-11-07T13:21:01.967Z,9.40
2022-11-07T13:23:31.940Z,9.40
2022-11-07T13:26:03.964Z,9.40
2022-11-07T13:28:39.652Z,9.50
2022-11-07T13:31:08.317Z,9.40
2022-11-07T13:33:37.376Z,9.40
2022-11-07T13:36:15.836Z,9.40
2022-11-07T13:38:48.505Z,9.40
2022-11-07T13:41:17.139Z,9.40
2022-11-07T13:43:48.398Z,9.40
2022-11-07T13:46:25.561Z,9.30
2022-11-07T13:48:55.138Z,9.40
2022-11-07T13:51:24.583Z,9.40
2022-11-07T13:54:04.474Z,9.30
2022-11-07T13:56:36.330Z,9.30
2022-11-07T13:59:08.448Z,9.30
2022-11-07T14:01:44.311Z,9.30
2022-11-07T14:04:15.970Z,9.30
2022-11-07T14:06:47.549Z,9.20
2022-11-07T14:09:18.058Z,9.20
2022-11-07T14:11:46.866Z,9.30
2022-11-07T14:14:15.469Z,9.20
2022-11-07T14:16:47.724Z,9.20
2022-11-07T14:19:16.868Z,9.20
2022-11-07T14:21:46.188Z,9.20
2022-11-07T14:24:25.968Z,9.20
2022-11-07T14:27:01.251Z,9.20
2022-11-07T14:29:29.688Z,9.10
2022-11-07T14:32:01.748Z,9.10
2022-11-07T14:34:30.346Z,9.10
2022-11-07T14:37:00.492Z,9.10
2022-11-07T14:39:30.488Z,9.10
2022-11-07T14:41:59.501Z,9.10
2022-11-07T14:44:53.351Z,9.10
2022-11-07T14:47:22.683Z,9.10
2022-11-07T14:49:51.467Z,9.10
2022-11-07T14:52:21.380Z,9.00
2022-11-07T14:54:50.696Z,9.00
2022-11-07T14:57:20.312Z,9.00
2022-11-07T14:59:48.543Z,9.00
2022-11-07T15:02:23.396Z,9.00
2022-11-07T15:04:51.863Z,9.00
2022-11-07T15:07:24.234Z,9.00
2022-11-07T15:09:52.729Z,9.00
2022-11-07T15:12:23.348Z,9.00
2022-11-07T15:15:01.903Z,9.00
2022-11-07T15:17:30.604Z,9.00
2022-11-07T15:20:00.494Z,9.00
2022-11-07T15:22:31.093Z,9.00
2022-11-07T15:25:01.685Z,9.00
2022-11-07T15:27:33.555Z,9.00
2022-11-07T15:30:02.264Z,9.00
2022-11-07T15:32:32.976Z,8.90
2022-11-07T15:35:17.388Z,9.00
2022-11-07T15:37:52.927Z,9.00
2022-11-07T15:40:21.901Z,8.90
2022-11-07T15:42:51.529Z,9.00
2022-11-07T15:45:20.434Z,8.90
2022-11-07T15:47:48.987Z,8.90
2022-11-07T15:50:18.004Z,8.90
2022-11-07T15:52:46.574Z,8.90
2022-11-07T15:55:15.348Z,8.90
2022-11-07T15:57:46.225Z,8.90
2022-11-07T16:00:18.061Z,8.90
2022-11-07T16:02:46.373Z,8.90
2022-11-07T16:05:14.981Z,8.90
2022-11-07T16:07:43.636Z,8.80
2022-11-07T16:10:18.693Z,8.80
2022-11-07T16:12:46.752Z,8.70
2022-11-07T16:15:20.975Z,8.70
2022-11-07T16:17:49.111Z,8.70
2022-11-07T16:20:21.351Z,8.60
2022-11-07T16:22:50.224Z,8.70
2022-11-07T16:25:22.031Z,8.60
2022-11-07T16:27:51.913Z,8.60
2022-11-07T16:30:21.787Z,8.60
2022-11-07T16:32:49.999Z,8.60
2022-11-07T16:35:18.164Z,8.60
2022-11-07T16:37:46.233Z,8.60
2022-11-07T16:40:15.517Z,8.50
2022-11-07T16:42:43.607Z,8.60
2022-11-07T16:45:15.249Z,8.50
2022-11-07T16:47:45.225Z,8.50
2022-11-07T16:50:17.020Z,8.50
2022-11-07T16:52:45.217Z,8.50
2022-11-07T16:55:15.601Z,8.50
2022-11-07T16:57:43.827Z,8.50
2022-11-07T17:00:17.552Z,8.50
2022-11-07T17:02:47.360Z,8.50
2022-11-07T17:05:15.797Z,8.50
2022-11-07T17:07:43.880Z,8.50
2022-11-07T17:10:16.783Z,8.50
2022-11-07T17:12:44.895Z,8.50
2022-11-07T17:15:13.118Z,8.40
2022-11-07T17:17:41.292Z,8.40
2022-11-07T17:20:48.576Z,8.40
2022-11-07T17:23:09.427Z,8.40
2022-11-07T17:25:37.966Z,8.30
2022-11-07T17:28:06.368Z,8.30
2022-11-07T17:30:34.702Z,8.20
2022-11-07T17:33:03.630Z,8.20
2022-11-07T17:35:33.577Z,8.20
2022-11-07T17:38:01.874Z,8.20
2022-11-07T17:40:30.804Z,8.20
2022-11-07T17:42:59.287Z,8.20
2022-11-07T17:45:27.849Z,8.20
2022-11-07T17:47:55.995Z,8.20
2022-11-07T17:50:24.240Z,8.20
2022-11-07T17:52:53.738Z,8.20
2022-11-07T17:55:22.250Z,8.10
2022-11-07T17:57:50.292Z,8.10
2022-11-07T18:00:19.337Z,8.20
2022-11-07T18:02:49.514Z,8.20
2022-11-07T18:05:18.744Z,8.20
2022-11-07T18:07:46.879Z,8.20
2022-11-07T18:10:16.986Z,8.20
2022-11-07T18:12:45.169Z,8.20
2022-11-07T18:15:13.783Z,8.20
2022-11-07T18:17:42.398Z,8.20
2022-11-07T18:20:11.383Z,8.10
2022-11-07T18:22:39.529Z,8.20
2022-11-07T18:25:07.882Z,8.20
2022-11-07T18:27:37.703Z,8.20
2022-11-07T18:30:06.632Z,8.30
2022-11-07T18:32:36.603Z,8.30
2022-11-07T18:35:06.271Z,8.30
2022-11-07T18:37:34.665Z,8.30
2022-11-07T18:40:02.945Z,8.30
2022-11-07T18:42:31.262Z,8.30
2022-11-07T18:45:00.765Z,8.30
2022-11-07T18:47:29.670Z,8.30
2022-11-07T18:50:00.308Z,8.30
2022-11-07T18:52:30.983Z,8.30
2022-11-07T18:54:59.197Z,8.30
2022-11-07T18:57:27.433Z,8.30
2022-11-07T18:59:55.542Z,8.30
2022-11-07T19:02:25.223Z,8.30
2022-11-07T19:04:53.486Z,8.30
2022-11-07T19:07:21.561Z,8.30
2022-11-07T19:09:49.713Z,8.40
2022-11-07T19:12:17.781Z,8.40
2022-11-07T19:14:45.809Z,8.30
2022-11-07T19:17:13.984Z,8.30
2022-11-07T19:19:44.735Z,8.30
2022-11-07T19:22:13.899Z,8.30
2022-11-07T19:24:42.011Z,8.30
2022-11-07T19:27:10.275Z,8.30
2022-11-07T19:29:38.395Z,8.30
2022-11-07T19:32:07.155Z,8.30
2022-11-07T19:34:35.403Z,8.40
2022-11-07T19:37:05.148Z,8.40
2022-11-07T19:39:36.573Z,8.40
2022-11-07T19:42:04.723Z,8.40
2022-11-07T19:44:34.150Z,8.40
2022-11-07T19:47:02.197Z,8.40
2022-11-07T19:49:30.335Z,8.40
2022-11-07T19:51:58.868Z,8.40
2022-11-07T19:54:28.342Z,8.50
2022-11-07T19:56:57.754Z,8.50
2022-11-07T19:59:26.064Z,8.50
2022-11-07T20:02:10.994Z,8.40
2022-11-07T20:04:42.421Z,8.50
2022-11-07T20:07:10.819Z,8.50
2022-11-07T20:09:40.461Z,8.50
2022-11-07T20:12:08.647Z,8.50
2022-11-07T20:14:37.118Z,8.50
2022-11-07T20:17:05.614Z,8.50
2022-11-07T20:19:34.151Z,8.40
2022-11-07T20:22:04.849Z,8.40
2022-11-07T20:24:32.937Z,8.40
2022-11-07T20:27:02.489Z,8.40
2022-11-07T20:29:30.658Z,8.30
2022-11-07T20:31:58.805Z,8.30
2022-11-07T20:34:27.029Z,8.30
2022-11-07T20:36:56.837Z,8.30
2022-11-07T20:39:24.937Z,8.20
2022-11-07T20:41:53.404Z,8.20
2022-11-07T20:44:23.647Z,8.30
2022-11-07T20:46:52.085Z,8.20
2022-11-07T20:49:21.239Z,8.20
2022-11-07T20:51:49.397Z,8.20
2022-11-07T20:54:17.492Z,8.20
2022-11-07T20:56:45.973Z,8.20
2022-11-07T20:59:14.043Z,8.20
2022-11-07T21:01:43.729Z,8.20
2022-11-07T21:04:13.640Z,8.10
2022-11-07T21:06:41.877Z,8.10
2022-11-07T21:09:10.769Z,8.10
2022-11-07T21:11:38.901Z,8.10
2022-11-07T21:14:07.279Z,8.10
2022-11-07T21:16:35.673Z,8.10
2022-11-07T21:19:05.980Z,8.10
2022-11-07T21:21:34.801Z,8.20
2022-11-07T21:24:03.313Z,8.10
2022-11-07T21:26:33.453Z,8.20
2022-11-07T21:29:01.905Z,8.20
2022-11-07T21:31:31.362Z,8.20
2022-11-07T21:33:59.462Z,8.10
2022-11-07T21:36:31.201Z,8.10
2022-11-07T21:39:02.502Z,8.20
2022-11-07T21:41:30.993Z,8.20
2022-11-07T21:43:59.469Z,8.20
2022-11-07T21:46:28.392Z,8.10
2022-11-07T21:48:56.486Z,8.10
2022-11-07T21:51:25.785Z,8.10
2022-11-07T21:53:55.508Z,8.10
2022-11-07T21:56:24.353Z,8.10
2022-11-07T21:58:53.239Z,8.10
2022-11-07T22:01:22.370Z,8.10
2022-11-07T22:04:06.905Z,8.10
2022-11-07T22:06:37.019Z,8.10
2022-11-07T22:09:07.200Z,8.10
2022-11-07T22:11:35.307Z,8.10
2022-11-07T22:14:03.648Z,8.10
2022-11-07T22:16:31.967Z,8.00
2022-11-07T22:19:00.555Z,8.00
2022-11-07T22:21:28.664Z,8.00
2022-11-07T22:23:56.913Z,8.10
2022-11-07T22:26:27.276Z,8.10
2022-11-07T22:28:55.559Z,8.10
2022-11-07T22:31:25.052Z,8.10
2022-11-07T22:33:54.285Z,8.10
2022-11-07T22:36:22.991Z,8.10
2022-11-07T22:38:51.455Z,8.10
2022-11-07T22:41:20.519Z,8.10
2022-11-07T22:43:50.340Z,8.10
2022-11-07T22:46:20.075Z,8.10
2022-11-07T22:48:49.006Z,8.10
2022-11-07T22:51:21.100Z,8.10
2022-11-07T22:53:49.199Z,8.10
2022-11-07T22:56:18.571Z,8.10
2022-11-07T22:58:49.658Z,8.10
2022-11-07T23:01:19.865Z,8.10
2022-11-07T23:03:48.568Z,8.10
2022-11-07T23:06:16.979Z,8.10
2022-11-07T23:08:45.501Z,8.10
2022-11-07T23:11:44.472Z,8.10
2022-11-07T23:14:04.411Z,8.10
2022-11-07T23:16:34.976Z,8.10
2022-11-07T23:19:04.167Z,8.10
2022-11-07T23:21:32.302Z,8.10
2022-11-07T23:24:00.955Z,8.10
2022-11-07T23:26:34.124Z,8.10
2022-11-07T23:29:09.079Z,8.10
2022-11-07T23:31:43.270Z,8.10
2022-11-07T23:34:11.950Z,8.10
2022-11-07T23:36:44.436Z,8.10
2022-11-07T23:39:16.914Z,8.00
2022-11-07T23:41:45.331Z,8.00
2022-11-07T23:44:13.899Z,8.10
2022-11-07T23:47:00.544Z,8.10
2022-11-07T23:50:00.821Z,8.00
2022-11-07T23:52:28.889Z,8.00
2022-11-07T23:55:14.176Z,7.90
2022-11-07T23:57:58.610Z,7.90
